Time;durP1;ratioP1;P1;durP2;ratioP2;P2;SDS_P1;SDS_P2;PMS_P1;PMS_P2;Temp;Humidity;BMP_temperature;BMP_pressure;BME280_temperature;BME280_humidity;BME280_pressure;Samples;Min_cycle;Max_cycle;Signal;HPM_P1;HPM_P2
2023/08/04 00:01:55;;;;;;;27.13;8.80;;;;;;;;;;4933811;28;20051;-56
2023/08/04 00:04:21;;;;;;;23.38;9.27;;;;;;;;;;4932881;28;20141;-56
2023/08/04 00:06:47;;;;;;;22.73;8.75;;;;;;;;;;4933670;28;20110;-54
2023/08/04 00:09:13;;;;;;;23.08;9.68;;;;;;;;;;4933733;28;20055;-53
2023/08/04 00:11:39;;;;;;;21.75;9.30;;;;;;;;;;4933641;28;20519;-55
2023/08/04 00:14:05;;;;;;;22.42;8.55;;;;;;;;;;4933060;28;20031;-55
2023/08/04 00:16:33;;;;;;;20.73;8.75;;;;;;;;;;4933397;28;20380;-55
2023/08/04 00:18:59;;;;;;;21.38;8.52;;;;;;;;;;4933414;28;20036;-56
2023/08/04 00:21:25;;;;;;;23.13;8.90;;;;;;;;;;4933240;28;20031;-58
2023/08/04 00:23:57;;;;;;;24.77;9.80;;;;;;;;;;4933268;29;20028;-58
2023/08/04 00:26:23;;;;;;;19.77;8.77;;;;;;;;;;4933384;29;20016;-54
2023/08/04 00:28:49;;;;;;;22.60;9.13;;;;;;;;;;4933418;28;20169;-54
2023/08/04 00:31:15;;;;;;;23.25;8.63;;;;;;;;;;4932485;29;20028;-57
2023/08/04 00:33:41;;;;;;;20.83;8.82;;;;;;;;;;4933165;28;20036;-56
2023/08/04 00:36:07;;;;;;;21.02;8.80;;;;;;;;;;4932694;28;20028;-57
2023/08/04 00:38:33;;;;;;;20.42;9.05;;;;;;;;;;4933307;28;20028;-57
2023/08/04 00:40:59;;;;;;;22.38;9.82;;;;;;;;;;4933424;29;20027;-56
2023/08/04 00:43:25;;;;;;;23.63;9.27;;;;;;;;;;4936329;28;20118;-55
2023/08/04 00:45:51;;;;;;;22.23;9.63;;;;;;;;;;4951942;29;20028;-58
2023/08/04 00:48:17;;;;;;;24.00;10.32;;;;;;;;;;4952595;29;20039;-59
2023/08/04 00:50:43;;;;;;;28.15;12.25;;;;;;;;;;4952151;29;20036;-56
2023/08/04 00:53:09;;;;;;;26.30;11.13;;;;;;;;;;4951984;29;20027;-58
2023/08/04 00:55:36;;;;;;;31.50;9.98;;;;;;;;;;4951343;29;20031;-58
2023/08/04 00:58:02;;;;;;;22.02;10.23;;;;;;;;;;4952094;29;20031;-53
2023/08/04 01:00:28;;;;;;;24.25;11.05;;;;;;;;;;4952189;29;20019;-59
2023/08/04 01:02:54;;;;;;;24.35;10.70;;;;;;;;;;4952088;29;20353;-57
2023/08/04 01:05:20;;;;;;;27.02;11.93;;;;;;;;;;4951357;29;20059;-54
2023/08/04 01:07:53;;;;;;;26.05;11.23;;;;;;;;;;4952011;29;20030;-52
2023/08/04 01:10:25;;;;;;;21.63;10.35;;;;;;;;;;4952030;29;20023;-55
2023/08/04 01:12:57;;;;;;;31.27;11.10;;;;;;;;;;4951905;29;20145;-55
2023/08/04 01:15:24;;;;;;;25.52;11.38;;;;;;;;;;4951031;28;20090;-53
2023/08/04 01:17:50;;;;;;;28.08;9.60;;;;;;;;;;4950634;29;20027;-52
2023/08/04 01:20:17;;;;;;;27.85;13.57;;;;;;;;;;4951377;29;20027;-54
2023/08/04 01:22:43;;;;;;;28.52;10.82;;;;;;;;;;4950430;29;20023;-56
2023/08/04 01:25:09;;;;;;;24.65;10.52;;;;;;;;;;4951201;29;20028;-54
2023/08/04 01:27:47;;;;;;;27.65;9.73;;;;;;;;;;4953301;29;20418;-52
2023/08/04 01:30:16;;;;;;;24.00;10.25;;;;;;;;;;4952761;29;20035;-55
2023/08/04 01:32:43;;;;;;;24.20;10.85;;;;;;;;;;4950482;28;20067;-53
2023/08/04 01:35:09;;;;;;;30.08;10.68;;;;;;;;;;4950551;29;20510;-53
2023/08/04 01:37:35;;;;;;;27.70;11.48;;;;;;;;;;4951376;29;20605;-55
2023/08/04 01:40:01;;;;;;;24.55;11.38;;;;;;;;;;4951079;29;20126;-55
2023/08/04 01:42:27;;;;;;;29.13;11.52;;;;;;;;;;4973500;28;20100;-51
2023/08/04 01:44:53;;;;;;;26.80;11.10;;;;;;;;;;5031248;28;20052;-55
2023/08/04 01:47:19;;;;;;;24.88;11.23;;;;;;;;;;5032028;28;20033;-56
2023/08/04 01:49:45;;;;;;;24.88;10.63;;;;;;;;;;5031949;28;20079;-57
2023/08/04 01:52:11;;;;;;;25.58;10.90;;;;;;;;;;5032018;28;20055;-54
2023/08/04 01:54:37;;;;;;;25.65;10.93;;;;;;;;;;5030110;28;20017;-55
2023/08/04 01:57:03;;;;;;;28.67;10.68;;;;;;;;;;5031562;28;20064;-53
2023/08/04 01:59:29;;;;;;;25.60;10.18;;;;;;;;;;5030504;28;20052;-54
2023/08/04 02:01:55;;;;;;;21.60;9.98;;;;;;;;;;5031788;28;20477;-54
2023/08/04 02:04:21;;;;;;;25.00;10.05;;;;;;;;;;5030978;28;20014;-52
2023/08/04 02:06:47;;;;;;;24.50;9.93;;;;;;;;;;5031671;28;20022;-54
2023/08/04 02:09:13;;;;;;;26.73;10.35;;;;;;;;;;5031838;28;20033;-52
2023/08/04 02:11:40;;;;;;;28.05;10.75;;;;;;;;;;5031892;28;20063;-52
2023/08/04 02:14:06;;;;;;;25.08;10.68;;;;;;;;;;5029794;28;20141;-54
2023/08/04 02:16:33;;;;;;;27.27;10.73;;;;;;;;;;5031554;28;20065;-54
2023/08/04 02:19:03;;;;;;;23.60;10.05;;;;;;;;;;5031461;28;20025;-53
2023/08/04 02:21:29;;;;;;;24.38;10.20;;;;;;;;;;5031590;28;20447;-52
2023/08/04 02:23:55;;;;;;;23.33;11.10;;;;;;;;;;5031124;28;20433;-56
2023/08/04 02:26:21;;;;;;;27.27;10.57;;;;;;;;;;5031427;28;20482;-57
2023/08/04 02:28:49;;;;;;;21.60;10.57;;;;;;;;;;5031407;28;20037;-56
2023/08/04 02:31:15;;;;;;;26.30;10.25;;;;;;;;;;5030319;28;20095;-53
2023/08/04 02:33:41;;;;;;;23.17;9.05;;;;;;;;;;5031327;28;20037;-51
2023/08/04 02:36:07;;;;;;;27.63;10.13;;;;;;;;;;5030672;28;20107;-54
2023/08/04 02:38:33;;;;;;;24.77;9.85;;;;;;;;;;5031441;28;20044;-51
2023/08/04 02:41:03;;;;;;;23.48;10.50;;;;;;;;;;5031499;28;20072;-52
2023/08/04 02:43:29;;;;;;;26.70;11.07;;;;;;;;;;5032779;28;20075;-52
2023/08/04 02:45:55;;;;;;;24.75;10.48;;;;;;;;;;5034702;28;20036;-54
2023/08/04 02:48:21;;;;;;;28.23;10.05;;;;;;;;;;5035372;28;20030;-51
2023/08/04 02:50:47;;;;;;;26.90;10.75;;;;;;;;;;5035386;28;20025;-54
2023/08/04 02:53:14;;;;;;;28.27;11.10;;;;;;;;;;5035151;28;20363;-52
2023/08/04 02:55:40;;;;;;;25.23;12.15;;;;;;;;;;5034360;28;20073;-58
2023/08/04 02:58:06;;;;;;;23.80;11.15;;;;;;;;;;5035138;28;20061;-55
2023/08/04 03:00:32;;;;;;;25.55;11.60;;;;;;;;;;5035082;28;20049;-51
2023/08/04 03:02:59;;;;;;;23.13;11.50;;;;;;;;;;5035063;28;20029;-53
2023/08/04 03:05:25;;;;;;;25.63;11.27;;;;;;;;;;5034360;28;20025;-53
2023/08/04 03:07:51;;;;;;;24.90;11.55;;;;;;;;;;5034977;28;20393;-58
2023/08/04 03:10:17;;;;;;;24.55;11.98;;;;;;;;;;5034873;28;20026;-56
2023/08/04 03:12:43;;;;;;;22.38;11.23;;;;;;;;;;5033703;28;20025;-55
2023/08/04 03:15:10;;;;;;;22.75;12.18;;;;;;;;;;5034192;28;20029;-56
2023/08/04 03:17:35;;;;;;;22.42;10.95;;;;;;;;;;5034913;28;20029;-55
2023/08/04 03:20:02;;;;;;;25.67;12.02;;;;;;;;;;5033471;28;20048;-54
2023/08/04 03:22:28;;;;;;;26.27;13.40;;;;;;;;;;5035049;28;20018;-55
2023/08/04 03:24:55;;;;;;;22.58;11.65;;;;;;;;;;5034034;28;20508;-58
2023/08/04 03:27:21;;;;;;;22.95;11.25;;;;;;;;;;5034935;28;20025;-54
2023/08/04 03:29:47;;;;;;;25.70;11.88;;;;;;;;;;5034720;28;20030;-56
2023/08/04 03:32:13;;;;;;;26.73;12.63;;;;;;;;;;5034500;28;20056;-55
2023/08/04 03:34:39;;;;;;;25.27;12.65;;;;;;;;;;5033610;28;20622;-56
2023/08/04 03:37:05;;;;;;;25.35;12.30;;;;;;;;;;5034345;28;20029;-53
2023/08/04 03:39:31;;;;;;;22.58;12.05;;;;;;;;;;5034269;28;20389;-55
2023/08/04 03:41:57;;;;;;;25.98;12.35;;;;;;;;;;5034291;28;20022;-56
2023/08/04 03:44:23;;;;;;;26.75;11.30;;;;;;;;;;5033248;28;20040;-52
2023/08/04 03:46:49;;;;;;;25.48;11.15;;;;;;;;;;5034246;28;20022;-56
2023/08/04 03:49:15;;;;;;;23.88;11.95;;;;;;;;;;5034402;28;20501;-53
2023/08/04 03:51:41;;;;;;;27.52;12.13;;;;;;;;;;5034330;28;20057;-55
2023/08/04 03:54:07;;;;;;;22.90;11.70;;;;;;;;;;5033212;28;20026;-56
2023/08/04 03:56:33;;;;;;;27.02;12.40;;;;;;;;;;5031859;28;20417;-51
2023/08/04 03:58:59;;;;;;;28.00;12.63;;;;;;;;;;5034231;28;20121;-52
2023/08/04 04:01:25;;;;;;;24.40;12.48;;;;;;;;;;5034567;28;20022;-57
2023/08/04 04:03:51;;;;;;;25.08;11.75;;;;;;;;;;5034058;28;20316;-53
2023/08/04 04:06:17;;;;;;;21.08;11.68;;;;;;;;;;5033420;28;20026;-58
2023/08/04 04:08:43;;;;;;;25.83;13.20;;;;;;;;;;5033743;28;20163;-56
2023/08/04 04:11:09;;;;;;;23.17;11.48;;;;;;;;;;5033776;28;20064;-57
2023/08/04 04:13:35;;;;;;;23.67;11.70;;;;;;;;;;5033396;28;20065;-50
2023/08/04 04:16:01;;;;;;;23.30;11.57;;;;;;;;;;5032972;28;20132;-54
2023/08/04 04:18:28;;;;;;;22.95;11.38;;;;;;;;;;5033743;28;20033;-54
2023/08/04 04:20:54;;;;;;;31.45;13.05;;;;;;;;;;5033696;28;20109;-59
2023/08/04 04:23:20;;;;;;;23.13;12.30;;;;;;;;;;5033579;28;20545;-57
2023/08/04 04:25:46;;;;;;;25.80;11.63;;;;;;;;;;5032993;28;20030;-56
2023/08/04 04:28:12;;;;;;;27.48;12.65;;;;;;;;;;5033659;28;20029;-57
2023/08/04 04:30:38;;;;;;;20.70;10.52;;;;;;;;;;5033687;28;20022;-57
2023/08/04 04:33:04;;;;;;;25.25;11.27;;;;;;;;;;5033376;28;20027;-59
2023/08/04 04:35:30;;;;;;;22.30;11.25;;;;;;;;;;5032598;28;20024;-55
2023/08/04 04:37:56;;;;;;;21.05;11.30;;;;;;;;;;5033288;28;20456;-55
2023/08/04 04:40:22;;;;;;;21.17;11.68;;;;;;;;;;5033155;28;20030;-57
2023/08/04 04:42:48;;;;;;;23.40;12.15;;;;;;;;;;5033068;28;20025;-57
2023/08/04 04:45:14;;;;;;;23.25;11.27;;;;;;;;;;5032238;28;20492;-56
2023/08/04 04:47:40;;;;;;;21.30;12.07;;;;;;;;;;5033090;28;20104;-58
2023/08/04 04:50:06;;;;;;;19.92;10.82;;;;;;;;;;5033112;28;20029;-53
2023/08/04 04:52:36;;;;;;;21.15;11.63;;;;;;;;;;5032816;28;20017;-52
2023/08/04 04:55:03;;;;;;;24.65;11.85;;;;;;;;;;5032077;28;20104;-56
2023/08/04 04:57:29;;;;;;;24.15;11.30;;;;;;;;;;5032776;28;20101;-57
2023/08/04 04:59:55;;;;;;;33.60;11.65;;;;;;;;;;5032570;28;20029;-56
2023/08/04 05:02:21;;;;;;;22.13;11.27;;;;;;;;;;5032648;28;20022;-58
2023/08/04 05:04:47;;;;;;;23.38;12.05;;;;;;;;;;5031954;28;20056;-59
2023/08/04 05:07:13;;;;;;;26.35;12.32;;;;;;;;;;5032511;28;20505;-57
2023/08/04 05:09:39;;;;;;;24.50;12.00;;;;;;;;;;5031365;28;20341;-56
2023/08/04 05:12:06;;;;;;;20.27;11.10;;;;;;;;;;5032586;28;20037;-56
2023/08/04 05:14:33;;;;;;;27.83;12.93;;;;;;;;;;5032030;28;20520;-56
2023/08/04 05:16:59;;;;;;;25.98;13.40;;;;;;;;;;5032640;28;20025;-55
2023/08/04 05:19:25;;;;;;;29.42;11.85;;;;;;;;;;5032404;28;20108;-54
2023/08/04 05:21:51;;;;;;;25.02;12.02;;;;;;;;;;5033290;28;20478;-53
2023/08/04 05:24:17;;;;;;;27.40;13.05;;;;;;;;;;5032246;28;20022;-54
2023/08/04 05:26:43;;;;;;;22.98;11.93;;;;;;;;;;5032844;28;20381;-59
2023/08/04 05:29:09;;;;;;;21.95;12.27;;;;;;;;;;5031438;28;20033;-55
2023/08/04 05:31:35;;;;;;;26.58;12.63;;;;;;;;;;5032583;28;20032;-54
2023/08/04 05:34:01;;;;;;;22.15;12.07;;;;;;;;;;5031860;28;20124;-50
2023/08/04 05:36:28;;;;;;;25.33;12.73;;;;;;;;;;5031951;28;20033;-54
2023/08/04 05:38:54;;;;;;;28.55;13.18;;;;;;;;;;5031974;28;20033;-58
2023/08/04 05:41:20;;;;;;;22.30;11.63;;;;;;;;;;5030693;28;20026;-57
2023/08/04 05:43:46;;;;;;;23.77;12.02;;;;;;;;;;5031937;28;20331;-50
2023/08/04 05:46:15;;;;;;;21.73;11.48;;;;;;;;;;5029915;28;20091;-58
2023/08/04 05:48:41;;;;;;;21.92;11.77;;;;;;;;;;5032315;28;20490;-53
2023/08/04 05:51:08;;;;;;;25.83;12.30;;;;;;;;;;5032124;28;20034;-52
2023/08/04 05:53:34;;;;;;;26.92;11.43;;;;;;;;;;5031742;28;20370;-56
2023/08/04 05:56:00;;;;;;;23.13;11.35;;;;;;;;;;5030990;28;20094;-55
2023/08/04 05:58:26;;;;;;;22.70;11.43;;;;;;;;;;5031734;28;20428;-54
2023/08/04 06:00:52;;;;;;;23.17;12.65;;;;;;;;;;5031377;28;20037;-54
2023/08/04 06:03:18;;;;;;;23.77;11.50;;;;;;;;;;5031335;28;20025;-54
2023/08/04 06:05:44;;;;;;;22.73;11.18;;;;;;;;;;5030855;28;20092;-58
2023/08/04 06:08:10;;;;;;;20.55;11.18;;;;;;;;;;5031494;28;20028;-57
2023/08/04 06:10:37;;;;;;;21.33;10.65;;;;;;;;;;5031405;28;20022;-54
2023/08/04 06:13:04;;;;;;;22.17;11.10;;;;;;;;;;5031391;28;20026;-53
2023/08/04 06:15:30;;;;;;;21.58;11.45;;;;;;;;;;5030361;28;20044;-55
2023/08/04 06:17:56;;;;;;;21.63;10.70;;;;;;;;;;5030935;28;20450;-57
2023/08/04 06:20:22;;;;;;;23.13;10.23;;;;;;;;;;4993561;28;20055;-59
2023/08/04 06:22:48;;;;;;;20.23;10.45;;;;;;;;;;4952346;29;20024;-59
2023/08/04 06:25:14;;;;;;;22.58;10.65;;;;;;;;;;4950429;29;20031;-57
2023/08/04 06:27:41;;;;;;;21.10;11.32;;;;;;;;;;4950548;29;20092;-56
2023/08/04 06:30:07;;;;;;;23.52;11.68;;;;;;;;;;4950355;29;20069;-56
2023/08/04 06:32:33;;;;;;;20.92;10.60;;;;;;;;;;4949302;29;20491;-55
2023/08/04 06:34:59;;;;;;;20.30;10.32;;;;;;;;;;4949528;29;20518;-56
2023/08/04 06:37:25;;;;;;;19.88;10.93;;;;;;;;;;4950362;29;20035;-56
2023/08/04 06:39:52;;;;;;;20.73;10.77;;;;;;;;;;4950074;29;20493;-56
2023/08/04 06:42:18;;;;;;;20.35;10.73;;;;;;;;;;4949139;29;20058;-57
2023/08/04 06:44:44;;;;;;;24.10;10.48;;;;;;;;;;4949492;29;20028;-51
2023/08/04 06:47:10;;;;;;;19.98;10.30;;;;;;;;;;4949358;29;20020;-57
2023/08/04 06:49:36;;;;;;;20.52;10.07;;;;;;;;;;4950348;29;20042;-57
2023/08/04 06:52:03;;;;;;;20.83;11.13;;;;;;;;;;4950139;29;20387;-53
2023/08/04 06:54:29;;;;;;;23.55;10.80;;;;;;;;;;4949567;29;20491;-55
2023/08/04 06:56:55;;;;;;;20.80;9.98;;;;;;;;;;4949936;29;20028;-54
2023/08/04 06:59:21;;;;;;;19.50;10.00;;;;;;;;;;4950316;29;20028;-55
2023/08/04 07:01:47;;;;;;;18.98;10.00;;;;;;;;;;4950100;29;20100;-51
2023/08/04 07:04:13;;;;;;;21.52;10.80;;;;;;;;;;4949375;29;20032;-58
2023/08/04 07:06:39;;;;;;;22.52;10.98;;;;;;;;;;4947788;28;20049;-50
2023/08/04 07:09:05;;;;;;;19.95;9.90;;;;;;;;;;4930550;29;20024;-54
2023/08/04 07:11:31;;;;;;;19.50;11.35;;;;;;;;;;4930894;29;20372;-57
2023/08/04 07:13:57;;;;;;;20.70;9.93;;;;;;;;;;4930115;28;20035;-55
2023/08/04 07:16:23;;;;;;;21.10;10.27;;;;;;;;;;4929290;28;20062;-52
2023/08/04 07:18:49;;;;;;;25.77;10.48;;;;;;;;;;4929756;29;20115;-53
2023/08/04 07:21:15;;;;;;;20.38;10.10;;;;;;;;;;4930542;28;20119;-56
2023/08/04 07:23:42;;;;;;;22.02;10.77;;;;;;;;;;4929191;28;20020;-52
2023/08/04 07:26:08;;;;;;;23.67;11.70;;;;;;;;;;4930078;28;20031;-53
2023/08/04 07:28:35;;;;;;;21.02;10.35;;;;;;;;;;4930390;28;20036;-58
2023/08/04 07:31:05;;;;;;;21.45;11.65;;;;;;;;;;4932468;28;20034;-56
2023/08/04 07:33:31;;;;;;;20.95;11.27;;;;;;;;;;4933576;28;20042;-56
2023/08/04 07:35:57;;;;;;;23.70;11.25;;;;;;;;;;4931965;29;20476;-56
2023/08/04 07:38:23;;;;;;;19.95;10.35;;;;;;;;;;4933651;29;20162;-57
2023/08/04 07:40:49;;;;;;;19.10;9.75;;;;;;;;;;4933574;29;20074;-54
2023/08/04 07:43:16;;;;;;;17.52;8.98;;;;;;;;;;4933712;29;20035;-55
2023/08/04 07:45:42;;;;;;;17.70;8.48;;;;;;;;;;4932762;28;20031;-54
2023/08/04 07:48:08;;;;;;;19.17;8.90;;;;;;;;;;4933694;28;20031;-65
2023/08/04 07:50:41;;;;;;;18.02;8.07;;;;;;;;;;4934006;29;20024;-51
2023/08/04 07:53:07;;;;;;;19.13;8.82;;;;;;;;;;4933643;29;20016;-50
2023/08/04 07:55:36;;;;;;;16.35;8.23;;;;;;;;;;4931448;28;20024;-54
2023/08/04 07:58:06;;;;;;;18.98;8.65;;;;;;;;;;4933765;28;20023;-51
2023/08/04 08:00:32;;;;;;;15.95;8.15;;;;;;;;;;4933547;28;20035;-52
2023/08/04 08:02:58;;;;;;;18.10;8.40;;;;;;;;;;4933417;28;20476;-49
2023/08/04 08:05:24;;;;;;;15.85;7.68;;;;;;;;;;4932635;28;20074;-50
2023/08/04 08:07:50;;;;;;;15.80;8.02;;;;;;;;;;4933504;28;20055;-56
2023/08/04 08:10:17;;;;;;;16.10;7.93;;;;;;;;;;4932295;28;20020;-52
2023/08/04 08:12:43;;;;;;;18.42;8.60;;;;;;;;;;4933340;28;20031;-55
2023/08/04 08:15:09;;;;;;;18.85;8.38;;;;;;;;;;4932386;28;20027;-57
2023/08/04 08:17:35;;;;;;;17.17;8.10;;;;;;;;;;4932878;28;20023;-56
2023/08/04 08:20:01;;;;;;;14.63;8.23;;;;;;;;;;4933063;28;20027;-55
2023/08/04 08:22:27;;;;;;;18.75;8.07;;;;;;;;;;4933203;28;20093;-53
2023/08/04 08:24:57;;;;;;;15.73;7.80;;;;;;;;;;4926033;28;20028;-54
2023/08/04 08:27:23;;;;;;;16.02;7.93;;;;;;;;;;4927746;28;20028;-51
2023/08/04 08:29:52;;;;;;;14.50;7.50;;;;;;;;;;4932740;28;20024;-52
2023/08/04 08:32:18;;;;;;;13.52;7.03;;;;;;;;;;4932353;28;20036;-51
2023/08/04 08:34:45;;;;;;;18.83;7.40;;;;;;;;;;4931890;29;20093;-56
2023/08/04 08:37:11;;;;;;;14.43;7.40;;;;;;;;;;4932759;28;20086;-56
2023/08/04 08:39:36;;;;;;;13.40;7.30;;;;;;;;;;4932569;29;20428;-51
2023/08/04 08:42:03;;;;;;;14.25;7.40;;;;;;;;;;4932135;29;20035;-52
2023/08/04 08:44:29;;;;;;;15.02;6.95;;;;;;;;;;4931505;29;20123;-51
2023/08/04 08:46:55;;;;;;;15.65;7.60;;;;;;;;;;4932445;28;20179;-54
2023/08/04 08:49:24;;;;;;;14.30;7.07;;;;;;;;;;4931078;28;20024;-54
2023/08/04 08:51:52;;;;;;;13.43;6.90;;;;;;;;;;4937199;28;20038;-51
2023/08/04 08:54:19;;;;;;;12.35;6.75;;;;;;;;;;4950887;29;20114;-54
2023/08/04 08:56:45;;;;;;;15.77;7.20;;;;;;;;;;4951529;29;20527;-54
2023/08/04 08:59:11;;;;;;;14.50;6.65;;;;;;;;;;4951005;29;20039;-54
2023/08/04 09:01:37;;;;;;;13.35;7.10;;;;;;;;;;4951708;29;20396;-54
2023/08/04 09:04:05;;;;;;;14.75;7.25;;;;;;;;;;4951408;29;20024;-54
2023/08/04 09:06:31;;;;;;;15.32;7.28;;;;;;;;;;4952192;29;20031;-55
2023/08/04 09:09:00;;;;;;;13.73;6.85;;;;;;;;;;4944129;28;20035;-57
2023/08/04 09:11:28;;;;;;;13.48;6.97;;;;;;;;;;4935981;28;20055;-55
2023/08/04 09:13:54;;;;;;;16.75;7.60;;;;;;;;;;4933851;28;20103;-53
2023/08/04 09:16:31;;;;;;;13.45;6.93;;;;;;;;;;4935376;28;20484;-55
2023/08/04 09:19:03;;;;;;;13.63;7.28;;;;;;;;;;4936372;28;20039;-56
2023/08/04 09:21:29;;;;;;;13.70;7.10;;;;;;;;;;4936004;28;20027;-54
2023/08/04 09:23:55;;;;;;;15.40;7.68;;;;;;;;;;4932095;28;20020;-64
2023/08/04 09:26:21;;;;;;;14.60;7.18;;;;;;;;;;4932209;28;20020;-61
2023/08/04 09:29:03;;;;;;;14.25;7.05;;;;;;;;;;4977409;28;20026;-58
2023/08/04 09:31:34;;;;;;;15.45;7.72;;;;;;;;;;5031728;28;20021;-57
2023/08/04 09:34:00;;;;;;;14.60;7.68;;;;;;;;;;5031195;28;20041;-60
2023/08/04 09:36:26;;;;;;;13.88;7.40;;;;;;;;;;5022046;28;20132;-64
2023/08/04 09:39:02;;;;;;;14.90;7.93;;;;;;;;;;5022013;28;20056;-59
2023/08/04 09:41:28;;;;;;;15.93;8.20;;;;;;;;;;5028882;28;20109;-62
2023/08/04 09:43:54;;;;;;;14.95;7.85;;;;;;;;;;5030866;28;20359;-59
2023/08/04 09:46:20;;;;;;;14.55;8.32;;;;;;;;;;5027450;28;20566;-59
2023/08/04 09:48:47;;;;;;;13.90;8.10;;;;;;;;;;5019703;28;20096;-57
2023/08/04 09:51:14;;;;;;;15.38;8.05;;;;;;;;;;4931902;29;20032;-57
2023/08/04 09:53:47;;;;;;;16.67;8.20;;;;;;;;;;4930899;29;20053;-59
2023/08/04 09:56:17;;;;;;;13.88;7.80;;;;;;;;;;4931439;29;20032;-56
2023/08/04 09:58:44;;;;;;;14.95;7.93;;;;;;;;;;4931445;29;20384;-54
2023/08/04 10:01:11;;;;;;;14.55;7.80;;;;;;;;;;4930132;29;20143;-56
2023/08/04 10:03:38;;;;;;;15.23;8.70;;;;;;;;;;4931787;29;20063;-57
2023/08/04 10:06:04;;;;;;;14.65;8.20;;;;;;;;;;4930791;29;20045;-56
2023/08/04 10:08:30;;;;;;;13.93;8.25;;;;;;;;;;4931589;28;20028;-59
2023/08/04 10:10:57;;;;;;;14.27;8.18;;;;;;;;;;4930189;28;20488;-59
2023/08/04 10:13:24;;;;;;;15.55;8.40;;;;;;;;;;4930255;28;20032;-55
2023/08/04 10:15:51;;;;;;;14.40;8.02;;;;;;;;;;4929208;28;20031;-55
2023/08/04 10:18:17;;;;;;;14.27;7.75;;;;;;;;;;4931301;28;20118;-53
2023/08/04 10:20:43;;;;;;;14.70;8.10;;;;;;;;;;4931336;28;20107;-58
2023/08/04 10:23:11;;;;;;;14.50;8.07;;;;;;;;;;4931407;28;20078;-54
2023/08/04 10:25:37;;;;;;;14.75;8.68;;;;;;;;;;4930378;28;20036;-60
2023/08/04 10:28:03;;;;;;;15.88;8.30;;;;;;;;;;4931569;28;20039;-58
2023/08/04 10:30:29;;;;;;;16.20;8.35;;;;;;;;;;4930556;28;20110;-58
2023/08/04 10:33:08;;;;;;;13.88;8.57;;;;;;;;;;4931511;28;20115;-55
2023/08/04 10:35:55;;;;;;;14.85;8.23;;;;;;;;;;4930607;28;20449;-56
2023/08/04 10:38:21;;;;;;;13.93;8.43;;;;;;;;;;4930878;28;20035;-57
2023/08/04 10:40:47;;;;;;;14.77;8.25;;;;;;;;;;4930965;28;20438;-61
2023/08/04 10:43:20;;;;;;;15.02;8.80;;;;;;;;;;4929704;28;20119;-58
2023/08/04 10:46:03;;;;;;;14.70;8.52;;;;;;;;;;4930668;28;20027;-54
2023/08/04 10:48:29;;;;;;;15.00;8.52;;;;;;;;;;4930037;28;20024;-56
2023/08/04 10:50:55;;;;;;;14.30;8.00;;;;;;;;;;4931305;28;20669;-52
2023/08/04 10:53:21;;;;;;;14.40;7.75;;;;;;;;;;4930570;28;20472;-57
2023/08/04 10:56:02;;;;;;;14.38;7.30;;;;;;;;;;4930016;28;20082;-51
2023/08/04 10:58:29;;;;;;;17.42;8.80;;;;;;;;;;4930533;28;20369;-56
2023/08/04 11:00:55;;;;;;;17.08;8.32;;;;;;;;;;4929529;28;20118;-55
2023/08/04 11:03:22;;;;;;;14.23;8.15;;;;;;;;;;4930967;28;20024;-58
2023/08/04 11:05:52;;;;;;;14.55;8.02;;;;;;;;;;4932963;28;20053;-58
2023/08/04 11:08:19;;;;;;;14.43;8.93;;;;;;;;;;4933823;28;20028;-58
2023/08/04 11:10:55;;;;;;;15.18;8.70;;;;;;;;;;4934357;28;20476;-56
2023/08/04 11:13:22;;;;;;;14.15;8.15;;;;;;;;;;4934136;28;20027;-59
2023/08/04 11:15:48;;;;;;;15.40;9.02;;;;;;;;;;4933085;28;20054;-59
2023/08/04 11:18:22;;;;;;;14.50;8.70;;;;;;;;;;4933324;28;20421;-59
2023/08/04 11:20:48;;;;;;;14.20;8.25;;;;;;;;;;4933898;28;20043;-56
2023/08/04 11:23:14;;;;;;;14.77;8.90;;;;;;;;;;4933597;28;20028;-56
2023/08/04 11:25:40;;;;;;;14.30;8.70;;;;;;;;;;4933287;28;20115;-55
2023/08/04 11:28:07;;;;;;;15.02;9.30;;;;;;;;;;4933590;28;20434;-55
2023/08/04 11:30:34;;;;;;;14.40;8.88;;;;;;;;;;4933236;28;20134;-61
2023/08/04 11:33:00;;;;;;;14.07;8.93;;;;;;;;;;4933669;28;20094;-55
2023/08/04 11:35:31;;;;;;;14.45;9.48;;;;;;;;;;4971541;23;20054;-64
2023/08/04 11:37:57;;;;;;;15.43;9.70;;;;;;;;;;4969484;28;20106;-63
2023/08/04 11:40:24;;;;;;;14.18;9.15;;;;;;;;;;4974414;28;20578;-60
2023/08/04 11:42:50;;;;;;;14.02;9.52;;;;;;;;;;4968756;28;20019;-63
2023/08/04 11:45:17;;;;;;;14.73;9.50;;;;;;;;;;4970700;28;20457;-64
2023/08/04 11:47:43;;;;;;;15.00;9.80;;;;;;;;;;4971507;28;20451;-57
2023/08/04 11:50:09;;;;;;;14.50;9.70;;;;;;;;;;4970622;28;20088;-61
2023/08/04 11:52:38;;;;;;;14.60;10.00;;;;;;;;;;4971413;28;20353;-61
2023/08/04 11:55:05;;;;;;;14.40;9.63;;;;;;;;;;4969074;28;20041;-63
2023/08/04 11:57:31;;;;;;;14.65;10.40;;;;;;;;;;4970916;28;20027;-61
2023/08/04 11:59:57;;;;;;;15.10;10.70;;;;;;;;;;4971029;28;20030;-63
2023/08/04 12:02:24;;;;;;;15.18;10.65;;;;;;;;;;4972087;28;20027;-63
2023/08/04 12:05:06;;;;;;;14.80;10.80;;;;;;;;;;4969093;28;20432;-62
2023/08/04 12:07:32;;;;;;;15.02;10.85;;;;;;;;;;4971041;28;20487;-63
2023/08/04 12:09:59;;;;;;;15.88;10.77;;;;;;;;;;4971042;28;20030;-61
2023/08/04 12:12:35;;;;;;;14.80;10.90;;;;;;;;;;4970900;28;20030;-63
2023/08/04 12:15:01;;;;;;;16.42;10.73;;;;;;;;;;4968480;28;20039;-64
2023/08/04 12:17:37;;;;;;;17.00;11.10;;;;;;;;;;4969707;28;20228;-63
2023/08/04 12:20:04;;;;;;;15.05;11.20;;;;;;;;;;4969280;28;20457;-63
2023/08/04 12:22:30;;;;;;;15.10;10.90;;;;;;;;;;4971243;28;20072;-61
2023/08/04 12:24:56;;;;;;;15.10;10.80;;;;;;;;;;4970342;28;20027;-62
2023/08/04 12:27:22;;;;;;;16.58;11.45;;;;;;;;;;4971178;28;20048;-60
2023/08/04 12:29:48;;;;;;;23.90;21.60;;;;;;;;;;4969104;28;20029;-63
2023/08/04 12:32:14;;;;;;;25.33;22.98;;;;;;;;;;4969347;28;20058;-63
2023/08/04 12:34:40;;;;;;;25.83;23.50;;;;;;;;;;4967246;28;20037;-63
2023/08/04 12:37:06;;;;;;;29.13;26.42;;;;;;;;;;4967978;28;20023;-63
2023/08/04 12:39:32;;;;;;;30.90;28.10;;;;;;;;;;4970259;28;20022;-62
2023/08/04 12:41:58;;;;;;;31.58;28.50;;;;;;;;;;4969537;28;20107;-62
2023/08/04 12:44:24;;;;;;;35.80;32.88;;;;;;;;;;4968490;28;20099;-62
2023/08/04 12:46:50;;;;;;;27.40;25.00;;;;;;;;;;4970847;28;20076;-61
2023/08/04 12:49:16;;;;;;;26.80;24.40;;;;;;;;;;4971265;28;20056;-62
2023/08/04 12:51:42;;;;;;;24.50;22.35;;;;;;;;;;4971182;28;20548;-58
2023/08/04 12:54:08;;;;;;;25.27;22.98;;;;;;;;;;4970307;28;20031;-55
2023/08/04 12:56:34;;;;;;;23.90;21.70;;;;;;;;;;4971156;28;20039;-59
2023/08/04 12:59:00;;;;;;;23.67;21.40;;;;;;;;;;4969706;28;20053;-59
2023/08/04 13:01:26;;;;;;;23.48;21.27;;;;;;;;;;4971124;28;20027;-58
2023/08/04 13:03:52;;;;;;;24.13;21.83;;;;;;;;;;4970962;28;20041;-62
2023/08/04 13:06:18;;;;;;;25.85;23.52;;;;;;;;;;4970434;28;20027;-61
2023/08/04 13:08:44;;;;;;;29.55;26.98;;;;;;;;;;4973409;28;20039;-62
2023/08/04 13:11:10;;;;;;;24.38;22.13;;;;;;;;;;4968826;28;20037;-62
2023/08/04 13:13:36;;;;;;;23.80;21.50;;;;;;;;;;4970654;28;20433;-63
2023/08/04 13:16:02;;;;;;;31.45;28.85;;;;;;;;;;4970370;28;20027;-62
2023/08/04 13:18:28;;;;;;;27.48;24.83;;;;;;;;;;4969184;28;20027;-63
2023/08/04 13:20:54;;;;;;;22.35;20.25;;;;;;;;;;4967829;28;20479;-62
2023/08/04 13:23:20;;;;;;;22.45;20.35;;;;;;;;;;4964791;28;20406;-62
2023/08/04 13:25:46;;;;;;;22.83;20.73;;;;;;;;;;4968264;28;20037;-63
2023/08/04 13:28:12;;;;;;;19.40;17.50;;;;;;;;;;4969336;28;20031;-64
2023/08/04 13:30:43;;;;;;;19.73;17.63;;;;;;;;;;4971187;28;20422;-63
2023/08/04 13:33:09;;;;;;;17.60;15.70;;;;;;;;;;4970541;28;20094;-61
2023/08/04 13:35:35;;;;;;;16.40;14.60;;;;;;;;;;4969376;28;20083;-63
2023/08/04 13:38:01;;;;;;;16.90;14.30;;;;;;;;;;4970129;28;20034;-59
2023/08/04 13:40:27;;;;;;;16.05;12.07;;;;;;;;;;4968245;28;20031;-64
2023/08/04 13:42:53;;;;;;;15.13;10.63;;;;;;;;;;4969438;28;20391;-61
2023/08/04 13:45:19;;;;;;;16.02;10.13;;;;;;;;;;4969991;28;20014;-64
2023/08/04 13:47:46;;;;;;;15.05;10.25;;;;;;;;;;4970154;28;20065;-63
2023/08/04 13:50:12;;;;;;;15.15;10.10;;;;;;;;;;4970769;28;20022;-62
2023/08/04 13:52:38;;;;;;;14.55;9.90;;;;;;;;;;4971429;28;20031;-60
2023/08/04 13:55:04;;;;;;;15.63;10.07;;;;;;;;;;4968965;28;20029;-63
2023/08/04 13:57:32;;;;;;;15.20;9.82;;;;;;;;;;4969582;28;20098;-62
2023/08/04 13:59:58;;;;;;;14.65;9.32;;;;;;;;;;4970138;28;20113;-63
2023/08/04 14:02:25;;;;;;;15.63;10.10;;;;;;;;;;4970141;28;20061;-61
2023/08/04 14:04:51;;;;;;;14.23;9.30;;;;;;;;;;5069696;28;20112;-66
2023/08/04 14:07:17;;;;;;;14.85;9.70;;;;;;;;;;5071325;28;20060;-62
2023/08/04 14:09:43;;;;;;;14.63;9.85;;;;;;;;;;4996310;28;20092;-62
2023/08/04 14:12:09;;;;;;;15.35;9.45;;;;;;;;;;4970197;28;20062;-61
2023/08/04 14:14:35;;;;;;;14.32;8.98;;;;;;;;;;4969521;28;20031;-65
2023/08/04 14:17:02;;;;;;;14.88;9.40;;;;;;;;;;4970370;28;20023;-62
2023/08/04 14:19:28;;;;;;;15.00;9.82;;;;;;;;;;4969909;28;20136;-60